Merion Station, PA (19066)

7:02 PM EST on January 23, 2017 (GMT -0500)
ME4529 | | Change Station
Active Advisory: Gale Warning

Elev 245 ft 40.02 °N, 75.23 °W | Updated 35 minutes ago

Overcast
Overcast
37.0 °F
Feels Like 37 °F
N
2.0
Wind Variable Wind from NNE
Gusts 11.0 mph

Today
High -- | Low -- °F
--% Chance of Precip.
Yesterday
High -- | Low -- °F
Precip. -- in
Pressure 29.56 in
Visibility 10.0 miles
Clouds Overcast 1700 ft
Windchill 37 °F
Dew Point 36 °F
Humidity 95%
Rainfall 0.43 in
Snow Depth Not available.
7:16 AM 5:09 PM
Waning Crescent, 15% visible
METAR KPHL 232354Z 05020G26KT 10SM OVC017 04/02 A2956 RMK AO2 PK WND 05032/2311 SLP008 60050 T00390017 10039 20033 58002
Pressure 29.56 in
Visibility 10.0 miles
Clouds Overcast 1700 ft
Windchill 37 °F
Dew Point 36 °F
Humidity 95%
Rainfall 0.43 in
Snow Depth Not available.
7:16 AM 5:09 PM
Waning Crescent, 15% visible
METAR KPHL 232354Z 05020G26KT 10SM OVC017 04/02 A2956 RMK AO2 PK WND 05032/2311 SLP008 60050 T00390017 10039 20033 58002

Get Your Daily Forecast Email!

Thanks for signing up!

Be on the lookout for a verification email in your inbox.

You'll start receiving the daily forecast at 8 AM.

×

10-Day Weather Forecast

Almanac

Astronomy

Jan. 23, 2017 Rise Set
Actual Time
Civil Twilight
Nautical Twilight
Astronomical Twilight
Moon
Length of Visible Light
Length of Day
Tomorrow will be .
, % of the Moon is Illuminated

Today's Extremes

State Highs State Lows

Community

WunderPhotos

Upload Photos

1,962,540 photos uploaded!

WunderBlog® & News

Nearby

Air Quality

  Air Quality AQ Index Pollutant
Not available.

Snow Depth

Station Depth Elevation

Earthquake Activity

City Distance Mag. Time & Date
Minimum magnitude displayed is 2.5.

Coastal Water Temperatures

Place Temperature

Stations

Nearby Weather Stations

Station Location Temp. Windchill Dew Point Humidity Wind Precip. Elev Updated Type
                   

Watches & Warnings

Gale Warning
Issued: 5:51 PM EST Jan. 23, 2017 – National Weather Service

... Gale Warning in effect until midnight EST tonight...
... Storm Warning is cancelled...

The National Weather Service in Mount Holly has issued a Gale
Warning... which is in effect until midnight EST tonight. The
Storm Warning has been cancelled.

* Location... upper Delaware Bay.

* Winds... northeast 20 to 25 kt with gusts up to 40 kt.

* Seas... 3 to 4 feet.

Precautionary/preparedness actions...

A Gale Warning means winds of 34 to 47 knots are imminent or
occurring. Operating a vessel in gale conditions requires
experience and properly equipped vessels. It is highly
recommended that mariners without the proper experience seek safe
Harbor prior to the onset of gale conditions.